^^
Saratoga-Weather Station Historical Data
Daily Summary for September 16, 2021 Units:  Both    English   Metric
Daily Weekly Monthly Yearly Custom
  High: Low: Average:
Temperature: 26.1 °F /  -3.3 °C 17.8 °F /  -7.9 °C 21 °F /  -6.1 °C
Dew Point: 24.8 °F /  -4 °C 16.3 °F /  -8.7 °C 19.6 °F /  -6.9 °C
Humidity: 95% 92% 94%
Wind Speed: 0mph /  0km/h - 0mph /  0km/h
Wind Gust: 0mph /  0km/h - -
Wind- -
Pressure: 30.4 in /  1029.5 hPa 30.3 in /  1027.1 hPa -
Precipitation: 0 in /  0.0 mm    
Historical Graphs
 
 
Tabular Data for September 16, 2021
Time Temperature Dew Point Pressure Wind Wind Speed Wind Gust Humidity Rainfall Rate (Hourly) solar
00:03 26.1 °F /  -3.3 °C 24.8 °F /  -4 °C 30.4in /  1029.5hPa Calm     95% 0in /  0.0mm 0 W/m2
00:08 25.9 °F /  -3.4 °C 24.6 °F /  -4.1 °C 30.4in /  1029.5hPa Calm     95% 0in /  0.0mm 0 W/m2
00:13 25.5 °F /  -3.6 °C 24.1 °F /  -4.4 °C 30.4in /  1029.5hPa Calm     94% 0in /  0.0mm 0 W/m2
00:18 25.2 °F /  -3.8 °C 23.7 °F /  -4.6 °C 30.4in /  1029.5hPa Calm     94% 0in /  0.0mm 0 W/m2
00:23 25 °F /  -3.9 °C 23.5 °F /  -4.7 °C 30.4in /  1029.5hPa Calm     94% 0in /  0.0mm 0 W/m2
00:28 24.6 °F /  -4.1 °C 23.2 °F /  -4.9 °C 30.4in /  1029.5hPa Calm     94% 0in /  0.0mm 0 W/m2
00:33 24.4 °F /  -4.2 °C 23 °F /  -5 °C 30.4in /  1029.5hPa Calm     94% 0in /  0.0mm 0 W/m2
00:38 24.3 °F /  -4.3 °C 22.8 °F /  -5.1 °C 30.4in /  1029.5hPa Calm     94% 0in /  0.0mm 0 W/m2
00:44 23.9 °F /  -4.5 °C 22.5 °F /  -5.3 °C 30.4in /  1029.1hPa Calm     94% 0in /  0.0mm 0 W/m2
00:49 23.5 °F /  -4.7 °C 22.1 °F /  -5.5 °C 30.4in /  1029.1hPa Calm     94% 0in /  0.0mm 0 W/m2
00:54 23.4 °F /  -4.8 °C 21.9 °F /  -5.6 °C 30.4in /  1029.1hPa Calm     94% 0in /  0.0mm 0 W/m2
00:59 23.2 °F /  -4.9 °C 21.7 °F /  -5.7 °C 30.4in /  1029.1hPa Calm     94% 0in /  0.0mm 0 W/m2
01:04 22.8 °F /  -5.1 °C 21.4 °F /  -5.9 °C 30.4in /  1029.1hPa Calm     94% 0in /  0.0mm 0 W/m2
01:09 22.8 °F /  -5.1 °C 21.4 °F /  -5.9 °C 30.4in /  1029.1hPa Calm     94% 0in /  0.0mm 0 W/m2
01:14 22.6 °F /  -5.2 °C 21.2 °F /  -6 °C 30.4in /  1029.1hPa Calm     94% 0in /  0.0mm 0 W/m2
01:19 22.6 °F /  -5.2 °C 21.2 °F /  -6 °C 30.4in /  1029.1hPa Calm     94% 0in /  0.0mm 0 W/m2
01:24 22.5 °F /  -5.3 °C 21 °F /  -6.1 °C 30.4in /  1029.1hPa Calm     94% 0in /  0.0mm 0 W/m2
01:29 22.5 °F /  -5.3 °C 21 °F /  -6.1 °C 30.4in /  1029.1hPa Calm     94% 0in /  0.0mm 0 W/m2
01:34 22.3 °F /  -5.4 °C 21 °F /  -6.1 °C 30.4in /  1029.1hPa Calm     95% 0in /  0.0mm 0 W/m2
01:39 22.1 °F /  -5.5 °C 20.7 °F /  -6.3 °C 30.4in /  1029.5hPa Calm     94% 0in /  0.0mm 0 W/m2
01:44 21.9 °F /  -5.6 °C 20.5 °F /  -6.4 °C 30.4in /  1029.5hPa Calm     94% 0in /  0.0mm 0 W/m2
01:49 21.9 °F /  -5.6 °C 20.5 °F /  -6.4 °C 30.4in /  1029.5hPa Calm     94% 0in /  0.0mm 0 W/m2
01:54 21.9 °F /  -5.6 °C 20.7 °F /  -6.3 °C 30.4in /  1029.1hPa Calm     95% 0in /  0.0mm 0 W/m2
01:59 21.7 °F /  -5.7 °C 20.3 °F /  -6.5 °C 30.4in /  1029.5hPa Calm     94% 0in /  0.0mm 0 W/m2
02:04 21.6 °F /  -5.8 °C 20.1 °F /  -6.6 °C 30.4in /  1029.1hPa Calm     94% 0in /  0.0mm 0 W/m2
02:09 21.6 °F /  -5.8 °C 20.1 °F /  -6.6 °C 30.4in /  1029.5hPa Calm     94% 0in /  0.0mm 0 W/m2
02:14 21.4 °F /  -5.9 °C 19.9 °F /  -6.7 °C 30.4in /  1029.5hPa Calm     94% 0in /  0.0mm 0 W/m2
02:19 21.4 °F /  -5.9 °C 19.9 °F /  -6.7 °C 30.4in /  1029.1hPa Calm     94% 0in /  0.0mm 0 W/m2
02:24 21.4 °F /  -5.9 °C 20.1 °F /  -6.6 °C 30.4in /  1029.1hPa Calm     95% 0in /  0.0mm 0 W/m2
02:29 21.2 °F /  -6 °C 19.9 °F /  -6.7 °C 30.4in /  1029.1hPa Calm     95% 0in /  0.0mm 0 W/m2
02:34 21 °F /  -6.1 °C 19.6 °F /  -6.9 °C 30.4in /  1029.1hPa Calm     94% 0in /  0.0mm 0 W/m2
02:39 21 °F /  -6.1 °C 19.6 °F /  -6.9 °C 30.4in /  1029.1hPa Calm     94% 0in /  0.0mm 0 W/m2
02:44 20.8 °F /  -6.2 °C 19.4 °F /  -7 °C 30.4in /  1029.5hPa Calm     94% 0in /  0.0mm 0 W/m2
02:49 20.7 °F /  -6.3 °C 19.2 °F /  -7.1 °C 30.4in /  1029.5hPa Calm     94% 0in /  0.0mm 0 W/m2
02:54 20.7 °F /  -6.3 °C 19.2 °F /  -7.1 °C 30.4in /  1029.5hPa Calm     94% 0in /  0.0mm 0 W/m2
02:59 20.7 °F /  -6.3 °C 19.2 °F /  -7.1 °C 30.4in /  1029.5hPa Calm     94% 0in /  0.0mm 0 W/m2
03:04 20.7 °F /  -6.3 °C 19.2 °F /  -7.1 °C 30.4in /  1029.5hPa Calm     94% 0in /  0.0mm 0 W/m2
03:09 20.7 °F /  -6.3 °C 19.4 °F /  -7 °C 30.4in /  1029.5hPa Calm     95% 0in /  0.0mm 0 W/m2
03:14 20.5 °F /  -6.4 °C 19 °F /  -7.2 °C 30.4in /  1029.5hPa Calm     94% 0in /  0.0mm 0 W/m2
03:19 20.3 °F /  -6.5 °C 18.9 °F /  -7.3 °C 30.4in /  1029.1hPa Calm     94% 0in /  0.0mm 0 W/m2
03:24 20.1 °F /  -6.6 °C 18.7 °F /  -7.4 °C 30.4in /  1029.1hPa Calm     94% 0in /  0.0mm 0 W/m2
03:29 20.1 °F /  -6.6 °C 18.7 °F /  -7.4 °C 30.4in /  1029.5hPa Calm     94% 0in /  0.0mm 0 W/m2
03:34 20.1 °F /  -6.6 °C 18.9 °F /  -7.3 °C 30.4in /  1029.1hPa Calm     95% 0in /  0.0mm 0 W/m2
03:39 20.1 °F /  -6.6 °C 18.9 °F /  -7.3 °C 30.4in /  1029.1hPa Calm     95% 0in /  0.0mm 0 W/m2
03:44 19.9 °F /  -6.7 °C 18.5 °F /  -7.5 °C 30.4in /  1029.1hPa Calm     94% 0in /  0.0mm 0 W/m2
03:49 19.8 °F /  -6.8 °C 18.3 °F /  -7.6 °C 30.4in /  1029.1hPa Calm     94% 0in /  0.0mm 0 W/m2
03:54 19.8 °F /  -6.8 °C 18.3 °F /  -7.6 °C 30.4in /  1029.1hPa Calm     94% 0in /  0.0mm 0 W/m2
03:59 19.8 °F /  -6.8 °C 18.3 °F /  -7.6 °C 30.4in /  1029.1hPa Calm     94% 0in /  0.0mm 0 W/m2
04:04 19.8 °F /  -6.8 °C 18.3 °F /  -7.6 °C 30.4in /  1029.1hPa Calm     94% 0in /  0.0mm 0 W/m2
04:09 19.6 °F /  -6.9 °C 18.1 °F /  -7.7 °C 30.4in /  1029.1hPa Calm     94% 0in /  0.0mm 0 W/m2
04:14 19.6 °F /  -6.9 °C 18.1 °F /  -7.7 °C 30.4in /  1029.1hPa Calm     94% 0in /  0.0mm 0 W/m2
04:19 19.6 °F /  -6.9 °C 18.1 °F /  -7.7 °C 30.4in /  1029.1hPa Calm     94% 0in /  0.0mm 0 W/m2
04:24 19.4 °F /  -7 °C 18 °F /  -7.8 °C 30.4in /  1029.1hPa Calm     94% 0in /  0.0mm 0 W/m2
04:29 19.4 °F /  -7 °C 18 °F /  -7.8 °C 30.4in /  1029.1hPa Calm     94% 0in /  0.0mm 0 W/m2
04:34 19.2 °F /  -7.1 °C 17.8 °F /  -7.9 °C 30.4in /  1029.1hPa Calm     94% 0in /  0.0mm 0 W/m2
04:39 19.2 °F /  -7.1 °C 17.8 °F /  -7.9 °C 30.4in /  1029.1hPa Calm     94% 0in /  0.0mm 0 W/m2
04:44 19.2 °F /  -7.1 °C 17.8 °F /  -7.9 °C 30.4in /  1029.1hPa Calm     94% 0in /  0.0mm 0 W/m2
04:49 19 °F /  -7.2 °C 17.6 °F /  -8 °C 30.4in /  1029.1hPa Calm     94% 0in /  0.0mm 0 W/m2
04:54 18.9 °F /  -7.3 °C 17.4 °F /  -8.1 °C 30.4in /  1029.1hPa Calm     94% 0in /  0.0mm 0 W/m2
04:59 18.9 °F /  -7.3 °C 17.4 °F /  -8.1 °C 30.4in /  1029.1hPa Calm     94% 0in /  0.0mm 0 W/m2
05:04 18.7 °F /  -7.4 °C 17.2 °F /  -8.2 °C 30.4in /  1029.1hPa Calm     94% 0in /  0.0mm 0 W/m2
05:14 18.5 °F /  -7.5 °C 17.1 °F /  -8.3 °C 30.4in /  1029.5hPa Calm     94% 0in /  0.0mm 0 W/m2
05:19 18.5 °F /  -7.5 °C 17.1 °F /  -8.3 °C 30.4in /  1029.1hPa Calm     94% 0in /  0.0mm 0 W/m2
05:24 18.5 °F /  -7.5 °C 17.1 °F /  -8.3 °C 30.4in /  1029.1hPa Calm     94% 0in /  0.0mm 0 W/m2
05:29 18.5 °F /  -7.5 °C 17.1 °F /  -8.3 °C 30.4in /  1029.1hPa Calm     94% 0in /  0.0mm 0 W/m2
05:34 18.5 °F /  -7.5 °C 17.1 °F /  -8.3 °C 30.4in /  1029.1hPa Calm     94% 0in /  0.0mm 0 W/m2
05:40 18.5 °F /  -7.5 °C 17.1 °F /  -8.3 °C 30.4in /  1029.1hPa Calm     94% 0in /  0.0mm 0 W/m2
05:45 18.7 °F /  -7.4 °C 17.4 °F /  -8.1 °C 30.4in /  1029.1hPa Calm     95% 0in /  0.0mm 0 W/m2
05:50 18.7 °F /  -7.4 °C 17.4 °F /  -8.1 °C 30.4in /  1029.1hPa Calm     95% 0in /  0.0mm 0 W/m2
05:55 18.7 °F /  -7.4 °C 17.2 °F /  -8.2 °C 30.4in /  1029.1hPa Calm     94% 0in /  0.0mm 0 W/m2
06:00 18.7 °F /  -7.4 °C 17.2 °F /  -8.2 °C 30.4in /  1029.1hPa Calm     94% 0in /  0.0mm 0 W/m2
06:05 18.5 °F /  -7.5 °C 17.1 °F /  -8.3 °C 30.4in /  1029.1hPa Calm     94% 0in /  0.0mm 0 W/m2
06:10 18.3 °F /  -7.6 °C 16.9 °F /  -8.4 °C 30.4in /  1029.1hPa Calm     94% 0in /  0.0mm 0 W/m2
06:15 18.1 °F /  -7.7 °C 16.7 °F /  -8.5 °C 30.4in /  1028.8hPa Calm     94% 0in /  0.0mm 0 W/m2
06:20 18.1 °F /  -7.7 °C 16.7 °F /  -8.5 °C 30.4in /  1028.8hPa Calm     94% 0in /  0.0mm 0 W/m2
06:25 18 °F /  -7.8 °C 16.5 °F /  -8.6 °C 30.4in /  1028.8hPa Calm     94% 0in /  0.0mm 0 W/m2
06:35 17.8 °F /  -7.9 °C 16.3 °F /  -8.7 °C 30.4in /  1028.8hPa Calm     94% 0in /  0.0mm 0 W/m2
06:40 17.8 °F /  -7.9 °C 16.3 °F /  -8.7 °C 30.4in /  1028.8hPa Calm     94% 0in /  0.0mm 0 W/m2
06:45 17.8 °F /  -7.9 °C 16.3 °F /  -8.7 °C 30.4in /  1028.8hPa Calm     94% 0in /  0.0mm 0 W/m2
06:50 18 °F /  -7.8 °C 16.5 °F /  -8.6 °C 30.4in /  1028.8hPa Calm     94% 0in /  0.0mm 0 W/m2
06:55 18.1 °F /  -7.7 °C 16.9 °F /  -8.4 °C 30.4in /  1028.8hPa Calm     95% 0in /  0.0mm 0 W/m2
07:00 18.3 °F /  -7.6 °C 17.1 °F /  -8.3 °C 30.4in /  1028.8hPa Calm     95% 0in /  0.0mm 0 W/m2
07:05 18.3 °F /  -7.6 °C 16.9 °F /  -8.4 °C 30.4in /  1028.8hPa Calm     94% 0in /  0.0mm 0 W/m2
07:10 18.3 °F /  -7.6 °C 16.9 °F /  -8.4 °C 30.4in /  1028.8hPa Calm     94% 0in /  0.0mm 0 W/m2
07:15 18.7 °F /  -7.4 °C 17.4 °F /  -8.1 °C 30.4in /  1028.8hPa Calm     95% 0in /  0.0mm 0 W/m2
07:20 18.9 °F /  -7.3 °C 17.6 °F /  -8 °C 30.4in /  1028.8hPa Calm     95% 0in /  0.0mm 0 W/m2
07:25 18.9 °F /  -7.3 °C 17.6 °F /  -8 °C 30.4in /  1028.8hPa Calm     95% 0in /  0.0mm 0 W/m2
07:30 19 °F /  -7.2 °C 17.8 °F /  -7.9 °C 30.4in /  1028.5hPa Calm     95% 0in /  0.0mm 0 W/m2
07:35 19.2 °F /  -7.1 °C 18 °F /  -7.8 °C 30.4in /  1028.5hPa Calm     95% 0in /  0.0mm 0 W/m2
07:40 19.4 °F /  -7 °C 18.1 °F /  -7.7 °C 30.4in /  1028.5hPa Calm     95% 0in /  0.0mm 0 W/m2
07:45 19.6 °F /  -6.9 °C 18.3 °F /  -7.6 °C 30.4in /  1028.5hPa Calm     95% 0in /  0.0mm 0 W/m2
07:50 19.8 °F /  -6.8 °C 18.5 °F /  -7.5 °C 30.4in /  1028.5hPa Calm     95% 0in /  0.0mm 0 W/m2
07:55 19.9 °F /  -6.7 °C 18.7 °F /  -7.4 °C 30.4in /  1028.5hPa Calm     95% 0in /  0.0mm 0 W/m2
08:00 19.9 °F /  -6.7 °C 18.7 °F /  -7.4 °C 30.4in /  1028.5hPa Calm     95% 0in /  0.0mm 0 W/m2
08:05 20.1 °F /  -6.6 °C 18.9 °F /  -7.3 °C 30.4in /  1028.5hPa Calm     95% 0in /  0.0mm 0 W/m2
08:10 20.1 °F /  -6.6 °C 18.9 °F /  -7.3 °C 30.4in /  1028.5hPa Calm     95% 0in /  0.0mm 0 W/m2
08:15 20.1 °F /  -6.6 °C 18.9 °F /  -7.3 °C 30.4in /  1028.5hPa Calm     95% 0in /  0.0mm 0 W/m2
08:20 20.1 °F /  -6.6 °C 18.9 °F /  -7.3 °C 30.4in /  1028.5hPa Calm     95% 0in /  0.0mm 0 W/m2
08:30 20.1 °F /  -6.6 °C 18.9 °F /  -7.3 °C 30.4in /  1028.5hPa Calm     95% 0in /  0.0mm 0 W/m2
08:35 20.3 °F /  -6.5 °C 19 °F /  -7.2 °C 30.4in /  1028.5hPa Calm     95% 0in /  0.0mm 0 W/m2
08:40 20.3 °F /  -6.5 °C 19 °F /  -7.2 °C 30.4in /  1028.5hPa Calm     95% 0in /  0.0mm 0 W/m2
08:45 20.5 °F /  -6.4 °C 19.2 °F /  -7.1 °C 30.4in /  1028.5hPa Calm     95% 0in /  0.0mm 0 W/m2
08:50 20.5 °F /  -6.4 °C 19.2 °F /  -7.1 °C 30.4in /  1028.5hPa Calm     95% 0in /  0.0mm 0 W/m2
08:55 20.7 °F /  -6.3 °C 19.4 °F /  -7 °C 30.4in /  1028.5hPa Calm     95% 0in /  0.0mm 0 W/m2
09:00 20.7 °F /  -6.3 °C 19.4 °F /  -7 °C 30.4in /  1028.5hPa Calm     95% 0in /  0.0mm 0 W/m2
09:05 20.7 °F /  -6.3 °C 19.4 °F /  -7 °C 30.4in /  1028.5hPa Calm     95% 0in /  0.0mm 5 W/m2
09:10 20.8 °F /  -6.2 °C 19.6 °F /  -6.9 °C 30.4in /  1028.5hPa Calm     95% 0in /  0.0mm 5 W/m2
09:15 20.8 °F /  -6.2 °C 19.6 °F /  -6.9 °C 30.4in /  1028.1hPa Calm     95% 0in /  0.0mm 5 W/m2
09:20 20.8 °F /  -6.2 °C 19.6 °F /  -6.9 °C 30.4in /  1028.1hPa Calm     95% 0in /  0.0mm 5 W/m2
09:25 20.8 °F /  -6.2 °C 19.6 °F /  -6.9 °C 30.4in /  1028.1hPa Calm     95% 0in /  0.0mm 5 W/m2
09:30 21 °F /  -6.1 °C 19.8 °F /  -6.8 °C 30.4in /  1028.1hPa Calm     95% 0in /  0.0mm 5 W/m2
09:35 21 °F /  -6.1 °C 19.8 °F /  -6.8 °C 30.4in /  1028.1hPa Calm     95% 0in /  0.0mm 7 W/m2
09:40 21.2 °F /  -6 °C 19.9 °F /  -6.7 °C 30.4in /  1028.1hPa Calm     95% 0in /  0.0mm 7 W/m2
09:45 21.4 °F /  -5.9 °C 20.1 °F /  -6.6 °C 30.4in /  1028.1hPa Calm     95% 0in /  0.0mm 11 W/m2
09:51 21.6 °F /  -5.8 °C 20.3 °F /  -6.5 °C 30.4in /  1028.1hPa Calm     95% 0in /  0.0mm 18 W/m2
09:56 21.7 °F /  -5.7 °C 20.5 °F /  -6.4 °C 30.4in /  1028.1hPa Calm     95% 0in /  0.0mm 19 W/m2
10:01 21.9 °F /  -5.6 °C 20.7 °F /  -6.3 °C 30.4in /  1028.1hPa Calm     95% 0in /  0.0mm 19 W/m2
10:06 21.9 °F /  -5.6 °C 20.7 °F /  -6.3 °C 30.4in /  1027.8hPa Calm     95% 0in /  0.0mm 19 W/m2
10:11 22.3 °F /  -5.4 °C 21 °F /  -6.1 °C 30.4in /  1027.8hPa Calm     95% 0in /  0.0mm 23 W/m2
10:16 22.5 °F /  -5.3 °C 21 °F /  -6.1 °C 30.4in /  1027.8hPa Calm     94% 0in /  0.0mm 25 W/m2
10:21 22.5 °F /  -5.3 °C 21 °F /  -6.1 °C 30.4in /  1027.8hPa Calm     94% 0in /  0.0mm 26 W/m2
10:26 22.6 °F /  -5.2 °C 21.2 °F /  -6 °C 30.4in /  1027.8hPa Calm     94% 0in /  0.0mm 23 W/m2
10:31 22.8 °F /  -5.1 °C 21.6 °F /  -5.8 °C 30.4in /  1027.8hPa Calm     95% 0in /  0.0mm 21 W/m2
10:36 22.8 °F /  -5.1 °C 21.4 °F /  -5.9 °C 30.4in /  1027.8hPa Calm     94% 0in /  0.0mm 21 W/m2
10:41 22.8 °F /  -5.1 °C 21.4 °F /  -5.9 °C 30.4in /  1027.8hPa Calm     94% 0in /  0.0mm 21 W/m2
10:46 22.8 °F /  -5.1 °C 21.4 °F /  -5.9 °C 30.4in /  1027.8hPa Calm     94% 0in /  0.0mm 21 W/m2
10:51 22.8 °F /  -5.1 °C 21.4 °F /  -5.9 °C 30.4in /  1027.8hPa Calm     94% 0in /  0.0mm 21 W/m2
10:56 22.8 °F /  -5.1 °C 21.4 °F /  -5.9 °C 30.4in /  1027.8hPa Calm     94% 0in /  0.0mm 21 W/m2
11:01 22.8 °F /  -5.1 °C 21.4 °F /  -5.9 °C 30.4in /  1027.8hPa Calm     94% 0in /  0.0mm 21 W/m2
11:06 23 °F /  -5 °C 21.6 °F /  -5.8 °C 30.4in /  1027.8hPa Calm     94% 0in /  0.0mm 23 W/m2
11:11 23.2 °F /  -4.9 °C 21.7 °F /  -5.7 °C 30.4in /  1027.8hPa Calm     94% 0in /  0.0mm 25 W/m2
11:16 23.4 °F /  -4.8 °C 21.9 °F /  -5.6 °C 30.4in /  1027.8hPa Calm     94% 0in /  0.0mm 25 W/m2
11:21 23.5 °F /  -4.7 °C 22.1 °F /  -5.5 °C 30.4in /  1027.8hPa Calm     94% 0in /  0.0mm 25 W/m2
11:26 23.7 °F /  -4.6 °C 22.3 °F /  -5.4 °C 30.4in /  1027.8hPa Calm     94% 0in /  0.0mm 26 W/m2
11:31 23.9 °F /  -4.5 °C 22.5 °F /  -5.3 °C 30.4in /  1027.8hPa Calm     94% 0in /  0.0mm 26 W/m2
11:36 23.9 °F /  -4.5 °C 22.5 °F /  -5.3 °C 30.3in /  1027.4hPa Calm     94% 0in /  0.0mm 26 W/m2
11:41 23.9 °F /  -4.5 °C 22.1 °F /  -5.5 °C 30.3in /  1027.4hPa Calm     93% 0in /  0.0mm 26 W/m2
11:46 23.9 °F /  -4.5 °C 22.1 °F /  -5.5 °C 30.3in /  1027.4hPa Calm     93% 0in /  0.0mm 25 W/m2
11:51 23.9 °F /  -4.5 °C 22.1 °F /  -5.5 °C 30.3in /  1027.4hPa Calm     93% 0in /  0.0mm 26 W/m2
11:56 23.7 °F /  -4.6 °C 21.9 °F /  -5.6 °C 30.3in /  1027.4hPa Calm     93% 0in /  0.0mm 26 W/m2
12:01 23.5 °F /  -4.7 °C 21.7 °F /  -5.7 °C 30.3in /  1027.4hPa Calm     93% 0in /  0.0mm 26 W/m2
12:06 23.5 °F /  -4.7 °C 21.7 °F /  -5.7 °C 30.3in /  1027.4hPa Calm     93% 0in /  0.0mm 26 W/m2
12:11 23.7 °F /  -4.6 °C 21.9 °F /  -5.6 °C 30.3in /  1027.4hPa Calm     93% 0in /  0.0mm 26 W/m2
12:16 23.7 °F /  -4.6 °C 21.9 °F /  -5.6 °C 30.3in /  1027.1hPa Calm     93% 0in /  0.0mm 26 W/m2
12:21 23.9 °F /  -4.5 °C 21.9 °F /  -5.6 °C 30.3in /  1027.1hPa Calm     92% 0in /  0.0mm 26 W/m2
Juneau County Weather
Compliments of Weather Underground - 2 mb